Kynouria — V7VY6 — position and weather

sailwx.info

Track history (hours):
 
Tides and Currents Weather Stations Pressure Air Temp Water Temp Dewpoint Dewpoint Depression Visibility Wind Speed Wind Dir Waves Ship Positions

Kynouria

Last reported at 2017-Oct-14 07:27 UTC. Time now 2017-Oct-18 20:45 UTC.
Position N 01°14' E 103°57'.

Length 229 m; draft 11.6 m.

Type: Ship. MMSI: 538004243.

Date/timePositionNaut miles runAvg speedWind from/ knotsBaromVisibWave heightAir tempDewpointWater temp
2017-Oct-14 07:27N 01°14' E 103°57'1 2.2
2017-Oct-14 06:59N 01°14' E 103°56'1 1.7
2017-Oct-14 06:29N 01°14' E 103°55'1 1.7
2017-Oct-14 06:00N 01°14' E 103°55'1 1.5
2017-Oct-14 05:30N 01°15' E 103°54'1 1.2
2017-Oct-14 04:59N 01°15' E 103°54'0 0.5
2017-Oct-14 04:30N 01°15' E 103°54'0 0.1
2017-Oct-14 03:46N 01°15' E 103°54'0 0.0
2017-Oct-14 03:05N 01°15' E 103°54'0 0.6
2017-Oct-14 02:52N 01°15' E 103°54'0 0.0
2017-Oct-14 02:25N 01°15' E 103°54'0 0.0
2017-Oct-14 01:57N 01°15' E 103°54'0 0.0
2017-Oct-14 01:30N 01°15' E 103°54'0 0.0
2017-Oct-14 00:48N 01°15' E 103°54'0 0.0
2017-Oct-14 00:20N 01°15' E 103°54'0 0.0
2017-Oct-13 23:51N 01°15' E 103°54'0 0.0
2017-Oct-13 23:23N 01°15' E 103°54'0 0.0
2017-Oct-13 22:55N 01°15' E 103°54'0 0.1
2017-Oct-13 21:55N 01°15' E 103°54'0 0.1
2017-Oct-13 21:24N 01°15' E 103°54'12 8.7
2017-Oct-13 20:03N 01°15' E 104°05'212.4
2017-Oct-13 19:55N 01°15' E 104°04'510.8
2017-Oct-13 19:30N 01°14' E 103°59'4 8.9
2017-Oct-13 19:00N 01°14' E 103°55'2 3.0
2017-Oct-13 18:23N 01°15' E 103°53'0 0.4
2017-Oct-13 17:58N 01°15' E 103°54'0 0.1
2017-Oct-13 17:28N 01°15' E 103°54'0 0.0
2017-Oct-13 16:58N 01°15' E 103°54'0 0.0
2017-Oct-13 16:28N 01°15' E 103°54'0 0.0
2017-Oct-13 15:58N 01°15' E 103°54'0 0.1
2017-Oct-13 15:28N 01°15' E 103°54'0 0.5
2017-Oct-13 15:00N 01°15' E 103°53'0 0.4
2017-Oct-13 14:28N 01°15' E 103°54'0 0.0
2017-Oct-13 13:58N 01°15' E 103°54'0 0.0
2017-Oct-13 13:13N 01°15' E 103°54'0 0.0
2017-Oct-13 12:58N 01°15' E 103°54'0 0.0
2017-Oct-13 12:22N 01°15' E 103°54'0 0.6
2017-Oct-13 11:57N 01°15' E 103°53'0 0.5
2017-Oct-13 11:28N 01°15' E 103°54'0 0.0
2017-Oct-13 10:49N 01°15' E 103°54'0 0.5
2017-Oct-13 10:19N 01°15' E 103°53'0 0.6
2017-Oct-13 09:58N 01°15' E 103°54'0 0.4
2017-Oct-13 09:25N 01°15' E 103°53'0 0.0
2017-Oct-13 09:00N 01°15' E 103°53'0 0.4
2017-Oct-13 08:28N 01°15' E 103°54'0 0.2
2017-Oct-13 07:55N 01°15' E 103°54'0 0.2
2017-Oct-13 07:28N 01°15' E 103°53'0 0.1
2017-Oct-13 06:58N 01°15' E 103°53'0 0.0
2017-Oct-13 06:28N 01°15' E 103°53'0 0.0
2017-Oct-13 05:58N 01°15' E 103°53'0 0.0
2017-Oct-13 05:27N 01°15' E 103°53'0 0.0
2017-Oct-13 04:58N 01°15' E 103°53'0 0.0
2017-Oct-13 04:28N 01°15' E 103°53'0 0.0
2017-Oct-13 03:58N 01°15' E 103°53'0 0.1
2017-Oct-13 03:30N 01°15' E 103°53'0 0.1
2017-Oct-13 02:58N 01°15' E 103°53'0 0.0
2017-Oct-13 02:28N 01°15' E 103°53'0 0.0
2017-Oct-13 01:58N 01°15' E 103°53'0 0.0
2017-Oct-13 01:28N 01°15' E 103°53'0 0.5
2017-Oct-13 00:58N 01°15' E 103°54'0 0.5
2017-Oct-13 00:28N 01°15' E 103°53'0 0.0
2017-Oct-12 23:55N 01°15' E 103°53'0 0.0
2017-Oct-12 23:28N 01°15' E 103°53'0 0.0
2017-Oct-12 22:58N 01°15' E 103°53'0 0.0
2017-Oct-12 22:28N 01°15' E 103°53'0 0.0
2017-Oct-12 21:58N 01°15' E 103°53'0 0.4
2017-Oct-12 21:29N 01°15' E 103°54'0 0.4
2017-Oct-12 20:58N 01°15' E 103°53'0 0.4
2017-Oct-12 20:29N 01°15' E 103°54'0 0.0
2017-Oct-12 20:00N 01°15' E 103°54'0 0.4
2017-Oct-12 19:28N 01°15' E 103°53'0 0.0
2017-Oct-12 18:55N 01°15' E 103°53'0 0.4
2017-Oct-12 18:24N 01°15' E 103°54'0 0.5
2017-Oct-12 17:58N 01°15' E 103°53'0 0.1
2017-Oct-12 17:28N 01°15' E 103°53'0 0.1
2017-Oct-12 16:52N 01°15' E 103°53'0 0.2
2017-Oct-12 16:30N 01°15' E 103°53'0 0.0
2017-Oct-12 15:59N 01°15' E 103°53'0 0.0
2017-Oct-12 15:27N 01°15' E 103°53'0 0.4
2017-Oct-12 14:52N 01°15' E 103°54'0 0.5
2017-Oct-12 14:20N 01°15' E 103°53'0 0.6
2017-Oct-12 13:58N 01°15' E 103°54'0 0.0
2017-Oct-12 13:28N 01°15' E 103°54'911.7
2017-Oct-12 12:39N 01°09' E 103°47'1 1.5
2017-Oct-12 11:49N 01°08' E 103°46'1 1.4
2017-Oct-12 11:24N 01°07' E 103°46'0 1.2
2017-Oct-12 11:00N 01°07' E 103°45'1213.9
2017-Oct-12 10:10N 01°15' E 103°54'0 0.0
2017-Oct-12 09:55N 01°15' E 103°54'0 0.0
2017-Oct-12 09:22N 01°15' E 103°54'0 0.0
2017-Oct-12 08:58N 01°15' E 103°54'0 0.0
2017-Oct-12 08:28N 01°15' E 103°54'0 0.0
2017-Oct-12 07:52N 01°15' E 103°54'0 0.2
2017-Oct-12 07:28N 01°15' E 103°54'0 0.2
2017-Oct-12 06:46N 01°15' E 103°53'0 0.1
2017-Oct-12 06:28N 01°15' E 103°53'0 0.0
2017-Oct-12 05:58N 01°15' E 103°53'0 0.1
2017-Oct-12 05:28N 01°15' E 103°53'0 0.0
2017-Oct-12 04:58N 01°15' E 103°53'0 0.0
2017-Oct-12 04:28N 01°15' E 103°53'0 0.0
2017-Oct-12 03:58N 01°15' E 103°53'0 0.0
2017-Oct-12 03:28N 01°15' E 103°53'0 0.0
2017-Oct-12 02:58N 01°15' E 103°53'0 0.1
2017-Oct-12 02:31N 01°15' E 103°54'2 3.6
2017-Oct-12 02:00N 01°13' E 103°53'2 4.7
2017-Oct-12 01:31N 01°12' E 103°52'3 6.5
2017-Oct-12 01:01N 01°10' E 103°49'3 5.2
2017-Oct-12 00:31N 01°09' E 103°47'3 5.8
2017-Oct-12 00:01N 01°06' E 103°45'3 5.7
2017-Oct-11 23:30N 01°05' E 103°43'3 5.3
2017-Oct-11 23:00N 01°03' E 103°41'2 4.8
2017-Oct-11 22:30N 01°03' E 103°38'4 7.1
2017-Oct-11 22:01N 01°05' E 103°35'510.8
2017-Oct-11 21:31N 01°07' E 103°31'610.9
2017-Oct-11 20:59N 01°10' E 103°26'511.0
2017-Oct-11 20:30N 01°14' E 103°22'611.2
2017-Oct-11 19:59N 01°18' E 103°17'  
Track history (hours):
 
Tides and Currents Weather Stations Pressure Air Temp Water Temp Dewpoint Dewpoint Depression Visibility Wind Speed Wind Dir Waves Ship Positions

Kynouria

Last reported at 2017-Oct-14 07:27 UTC. Time now 2017-Oct-18 20:45 UTC.
Position N 01°14' E 103°57'.

Length 229 m; draft 11.6 m.

Type: Ship. MMSI: 538004243.

Date/timePositionNaut miles runAvg speedWind from/ knotsBaromVisibWave heightAir tempDewpointWater temp
2017-Oct-14 07:27N 01°14' E 103°57'1 2.2
2017-Oct-14 06:59N 01°14' E 103°56'1 1.7
2017-Oct-14 06:29N 01°14' E 103°55'1 1.7
2017-Oct-14 06:00N 01°14' E 103°55'1 1.5
2017-Oct-14 05:30N 01°15' E 103°54'1 1.2
2017-Oct-14 04:59N 01°15' E 103°54'0 0.5
2017-Oct-14 04:30N 01°15' E 103°54'0 0.1
2017-Oct-14 03:46N 01°15' E 103°54'0 0.0
2017-Oct-14 03:05N 01°15' E 103°54'0 0.6
2017-Oct-14 02:52N 01°15' E 103°54'0 0.0
2017-Oct-14 02:25N 01°15' E 103°54'0 0.0
2017-Oct-14 01:57N 01°15' E 103°54'0 0.0
2017-Oct-14 01:30N 01°15' E 103°54'0 0.0
2017-Oct-14 00:48N 01°15' E 103°54'0 0.0
2017-Oct-14 00:20N 01°15' E 103°54'0 0.0
2017-Oct-13 23:51N 01°15' E 103°54'0 0.0
2017-Oct-13 23:23N 01°15' E 103°54'0 0.0
2017-Oct-13 22:55N 01°15' E 103°54'0 0.1
2017-Oct-13 21:55N 01°15' E 103°54'0 0.1
2017-Oct-13 21:24N 01°15' E 103°54'12 8.7
2017-Oct-13 20:03N 01°15' E 104°05'212.4
2017-Oct-13 19:55N 01°15' E 104°04'510.8
2017-Oct-13 19:30N 01°14' E 103°59'4 8.9
2017-Oct-13 19:00N 01°14' E 103°55'2 3.0
2017-Oct-13 18:23N 01°15' E 103°53'0 0.4
2017-Oct-13 17:58N 01°15' E 103°54'0 0.1
2017-Oct-13 17:28N 01°15' E 103°54'0 0.0
2017-Oct-13 16:58N 01°15' E 103°54'0 0.0
2017-Oct-13 16:28N 01°15' E 103°54'0 0.0
2017-Oct-13 15:58N 01°15' E 103°54'0 0.1
2017-Oct-13 15:28N 01°15' E 103°54'0 0.5
2017-Oct-13 15:00N 01°15' E 103°53'0 0.4
2017-Oct-13 14:28N 01°15' E 103°54'0 0.0
2017-Oct-13 13:58N 01°15' E 103°54'0 0.0
2017-Oct-13 13:13N 01°15' E 103°54'0 0.0
2017-Oct-13 12:58N 01°15' E 103°54'0 0.0
2017-Oct-13 12:22N 01°15' E 103°54'0 0.6
2017-Oct-13 11:57N 01°15' E 103°53'0 0.5
2017-Oct-13 11:28N 01°15' E 103°54'0 0.0
2017-Oct-13 10:49N 01°15' E 103°54'0 0.5
2017-Oct-13 10:19N 01°15' E 103°53'0 0.6
2017-Oct-13 09:58N 01°15' E 103°54'0 0.4
2017-Oct-13 09:25N 01°15' E 103°53'0 0.0
2017-Oct-13 09:00N 01°15' E 103°53'0 0.4
2017-Oct-13 08:28N 01°15' E 103°54'0 0.2
2017-Oct-13 07:55N 01°15' E 103°54'0 0.2
2017-Oct-13 07:28N 01°15' E 103°53'0 0.1
2017-Oct-13 06:58N 01°15' E 103°53'0 0.0
2017-Oct-13 06:28N 01°15' E 103°53'0 0.0
2017-Oct-13 05:58N 01°15' E 103°53'0 0.0
2017-Oct-13 05:27N 01°15' E 103°53'0 0.0
2017-Oct-13 04:58N 01°15' E 103°53'0 0.0
2017-Oct-13 04:28N 01°15' E 103°53'0 0.0
2017-Oct-13 03:58N 01°15' E 103°53'0 0.1
2017-Oct-13 03:30N 01°15' E 103°53'0 0.1
2017-Oct-13 02:58N 01°15' E 103°53'0 0.0
2017-Oct-13 02:28N 01°15' E 103°53'0 0.0
2017-Oct-13 01:58N 01°15' E 103°53'0 0.0
2017-Oct-13 01:28N 01°15' E 103°53'0 0.5
2017-Oct-13 00:58N 01°15' E 103°54'0 0.5
2017-Oct-13 00:28N 01°15' E 103°53'0 0.0
2017-Oct-12 23:55N 01°15' E 103°53'0 0.0
2017-Oct-12 23:28N 01°15' E 103°53'0 0.0
2017-Oct-12 22:58N 01°15' E 103°53'0 0.0
2017-Oct-12 22:28N 01°15' E 103°53'0 0.0
2017-Oct-12 21:58N 01°15' E 103°53'0 0.4
2017-Oct-12 21:29N 01°15' E 103°54'0 0.4
2017-Oct-12 20:58N 01°15' E 103°53'0 0.4
2017-Oct-12 20:29N 01°15' E 103°54'0 0.0
2017-Oct-12 20:00N 01°15' E 103°54'0 0.4
2017-Oct-12 19:28N 01°15' E 103°53'0 0.0
2017-Oct-12 18:55N 01°15' E 103°53'0 0.4
2017-Oct-12 18:24N 01°15' E 103°54'0 0.5
2017-Oct-12 17:58N 01°15' E 103°53'0 0.1
2017-Oct-12 17:28N 01°15' E 103°53'0 0.1
2017-Oct-12 16:52N 01°15' E 103°53'0 0.2
2017-Oct-12 16:30N 01°15' E 103°53'0 0.0
2017-Oct-12 15:59N 01°15' E 103°53'0 0.0
2017-Oct-12 15:27N 01°15' E 103°53'0 0.4
2017-Oct-12 14:52N 01°15' E 103°54'0 0.5
2017-Oct-12 14:20N 01°15' E 103°53'0 0.6
2017-Oct-12 13:58N 01°15' E 103°54'0 0.0
2017-Oct-12 13:28N 01°15' E 103°54'911.7
2017-Oct-12 12:39N 01°09' E 103°47'1 1.5
2017-Oct-12 11:49N 01°08' E 103°46'1 1.4
2017-Oct-12 11:24N 01°07' E 103°46'0 1.2
2017-Oct-12 11:00N 01°07' E 103°45'1213.9
2017-Oct-12 10:10N 01°15' E 103°54'0 0.0
2017-Oct-12 09:55N 01°15' E 103°54'0 0.0
2017-Oct-12 09:22N 01°15' E 103°54'0 0.0
2017-Oct-12 08:58N 01°15' E 103°54'0 0.0
2017-Oct-12 08:28N 01°15' E 103°54'0 0.0
2017-Oct-12 07:52N 01°15' E 103°54'0 0.2
2017-Oct-12 07:28N 01°15' E 103°54'0 0.2
2017-Oct-12 06:46N 01°15' E 103°53'0 0.1
2017-Oct-12 06:28N 01°15' E 103°53'0 0.0
2017-Oct-12 05:58N 01°15' E 103°53'0 0.1
2017-Oct-12 05:28N 01°15' E 103°53'0 0.0
2017-Oct-12 04:58N 01°15' E 103°53'0 0.0
2017-Oct-12 04:28N 01°15' E 103°53'0 0.0
2017-Oct-12 03:58N 01°15' E 103°53'0 0.0
2017-Oct-12 03:28N 01°15' E 103°53'0 0.0
2017-Oct-12 02:58N 01°15' E 103°53'0 0.1
2017-Oct-12 02:31N 01°15' E 103°54'2 3.6
2017-Oct-12 02:00N 01°13' E 103°53'2 4.7
2017-Oct-12 01:31N 01°12' E 103°52'3 6.5
2017-Oct-12 01:01N 01°10' E 103°49'3 5.2
2017-Oct-12 00:31N 01°09' E 103°47'3 5.8
2017-Oct-12 00:01N 01°06' E 103°45'3 5.7
2017-Oct-11 23:30N 01°05' E 103°43'3 5.3
2017-Oct-11 23:00N 01°03' E 103°41'2 4.8
2017-Oct-11 22:30N 01°03' E 103°38'4 7.1
2017-Oct-11 22:01N 01°05' E 103°35'510.8
2017-Oct-11 21:31N 01°07' E 103°31'610.9
2017-Oct-11 20:59N 01°10' E 103°26'511.0
2017-Oct-11 20:30N 01°14' E 103°22'611.2
2017-Oct-11 19:59N 01°18' E 103°17'  

Dump ship's entire track history